Time;durP1;ratioP1;P1;durP2;ratioP2;P2;SDS_P1;SDS_P2;PMS_P1;PMS_P2;Temp;Humidity;BMP_temperature;BMP_pressure;BME280_temperature;BME280_humidity;BME280_pressure;Samples;Min_cycle;Max_cycle;Signal;HPM_P1;HPM_P2
2023/07/22 00:01:42;;;;;;;2.03;1.83;;;15.30;99.90;;;;;;5051456;28;20170;-91
2023/07/22 00:04:08;;;;;;;2.60;2.00;;;15.30;99.90;;;;;;5052366;28;20161;-91
2023/07/22 00:06:33;;;;;;;2.65;1.98;;;15.30;99.90;;;;;;5051787;28;20177;-90
2023/07/22 00:08:59;;;;;;;3.20;2.00;;;15.30;99.90;;;;;;5051367;28;20211;-90
2023/07/22 00:11:25;;;;;;;4.35;1.95;;;15.20;99.90;;;;;;5051389;28;20182;-89
2023/07/22 00:13:53;;;;;;;3.72;2.10;;;15.20;99.90;;;;;;5051677;28;20235;-91
2023/07/22 00:16:24;;;;;;;3.22;2.28;;;15.20;99.90;;;;;;5052395;28;20259;-90
2023/07/22 00:18:50;;;;;;;3.65;2.10;;;15.10;99.90;;;;;;5051331;28;20170;-91
2023/07/22 00:21:16;;;;;;;3.22;2.03;;;15.10;99.90;;;;;;5051595;28;20192;-91
2023/07/22 00:23:42;;;;;;;3.53;2.30;;;15.10;99.90;;;;;;5051176;28;20174;-89
2023/07/22 00:26:09;;;;;;;5.05;2.63;;;15.10;99.90;;;;;;5051496;28;20201;-90
2023/07/22 00:28:35;;;;;;;2.70;2.17;;;15.10;99.90;;;;;;5051476;28;20269;-91
2023/07/22 00:31:03;;;;;;;3.15;2.67;;;15.10;99.90;;;;;;5051533;28;20673;-91
2023/07/22 00:33:29;;;;;;;3.78;2.65;;;15.00;99.90;;;;;;5051289;28;20209;-90
2023/07/22 00:35:55;;;;;;;5.10;2.85;;;15.00;99.90;;;;;;5051314;28;20659;-92
2023/07/22 00:38:22;;;;;;;5.38;3.10;;;15.00;99.90;;;;;;5050991;28;20224;-89
2023/07/22 00:40:47;;;;;;;4.38;2.92;;;15.00;99.90;;;;;;5051481;28;20163;-89
2023/07/22 00:43:13;;;;;;;4.13;2.67;;;14.90;99.90;;;;;;5051099;28;20241;-89
2023/07/22 00:45:39;;;;;;;3.63;2.75;;;14.90;99.90;;;;;;5051425;28;20209;-90
2023/07/22 00:48:06;;;;;;;4.00;3.38;;;14.90;99.90;;;;;;5051345;28;20621;-92
2023/07/22 00:50:33;;;;;;;4.53;3.30;;;14.90;99.90;;;;;;5051026;28;20344;-92
2023/07/22 00:52:59;;;;;;;4.68;3.25;;;14.80;99.90;;;;;;5051096;28;20254;-91
2023/07/22 00:55:26;;;;;;;3.83;3.42;;;14.80;99.90;;;;;;5050383;28;20363;-90
2023/07/22 00:57:52;;;;;;;5.05;3.40;;;14.80;99.90;;;;;;5050971;28;20174;-90
2023/07/22 01:00:18;;;;;;;6.70;3.58;;;14.80;99.90;;;;;;5051424;28;20177;-91
2023/07/22 01:02:44;;;;;;;5.13;3.97;;;14.80;99.90;;;;;;5052055;28;20174;-91
2023/07/22 01:05:12;;;;;;;4.70;4.18;;;14.70;99.90;;;;;;5053336;28;20571;-92
2023/07/22 01:07:38;;;;;;;6.03;3.70;;;14.70;99.90;;;;;;5054705;28;20189;-90
2023/07/22 01:10:05;;;;;;;5.43;4.25;;;14.70;99.90;;;;;;5054492;28;20193;-89
2023/07/22 01:12:31;;;;;;;6.22;4.35;;;14.70;99.90;;;;;;5054540;28;20166;-90
2023/07/22 01:14:58;;;;;;;5.80;4.32;;;14.60;99.90;;;;;;5054330;28;20189;-91
2023/07/22 01:17:24;;;;;;;7.68;4.78;;;14.60;99.90;;;;;;5054269;28;20170;-90
2023/07/22 01:19:50;;;;;;;8.27;4.63;;;14.60;99.90;;;;;;5036094;28;20236;-92
2023/07/22 01:22:17;;;;;;;7.10;4.57;;;14.60;99.90;;;;;;5034537;28;20182;-90
2023/07/22 01:24:43;;;;;;;7.10;4.80;;;14.60;99.90;;;;;;5034113;28;20202;-91
2023/07/22 01:27:10;;;;;;;6.00;5.00;;;14.50;99.90;;;;;;5034090;28;20182;-92
2023/07/22 01:29:42;;;;;;;7.00;5.30;;;14.60;99.90;;;;;;5033793;28;20213;-89
2023/07/22 01:32:09;;;;;;;6.32;4.75;;;14.50;99.90;;;;;;5033628;28;20185;-92
2023/07/22 01:34:34;;;;;;;5.95;4.93;;;14.50;99.90;;;;;;5034875;28;20277;-92
2023/07/22 01:37:00;;;;;;;9.98;5.50;;;14.50;99.90;;;;;;5033891;28;20261;-91
2023/07/22 01:39:27;;;;;;;6.57;5.38;;;14.50;99.90;;;;;;5034023;28;20171;-90
2023/07/22 01:41:53;;;;;;;6.93;5.43;;;14.40;99.90;;;;;;5035130;28;20173;-90
2023/07/22 01:44:18;;;;;;;8.80;5.40;;;14.40;99.90;;;;;;5033259;28;20175;-91
2023/07/22 01:46:44;;;;;;;8.13;5.10;;;14.40;99.90;;;;;;5033829;28;20174;-90
2023/07/22 01:49:12;;;;;;;7.25;5.70;;;14.40;99.90;;;;;;5047554;28;20243;-93
2023/07/22 01:51:38;;;;;;;7.88;5.65;;;14.40;99.90;;;;;;5348334;22;21102;-87
2023/07/22 01:54:05;;;;;;;9.20;5.85;;;14.30;99.90;;;;;;5034057;28;20244;-85
2023/07/22 01:56:31;;;;;;;9.73;6.18;;;14.30;99.90;;;;;;5037076;28;20171;-84
2023/07/22 01:58:56;;;;;;;7.97;5.75;;;14.30;99.90;;;;;;5037088;28;20617;-85
2023/07/22 02:01:22;;;;;;;7.15;5.45;;;14.30;99.90;;;;;;5035696;28;20174;-85
2023/07/22 02:03:50;;;;;;;10.00;5.90;;;14.30;99.90;;;;;;5036942;28;20178;-88
2023/07/22 02:06:16;;;;;;;8.73;6.32;;;14.30;99.90;;;;;;5035944;28;20175;-87
2023/07/22 02:08:41;;;;;;;8.93;6.60;;;14.30;99.90;;;;;;5036699;28;20617;-86
2023/07/22 02:11:11;;;;;;;10.13;5.95;;;14.20;99.90;;;;;;5035613;28;20225;-86
2023/07/22 02:13:36;;;;;;;7.55;5.75;;;14.20;99.90;;;;;;5035563;28;20183;-88
2023/07/22 02:16:03;;;;;;;10.38;5.78;;;14.20;99.90;;;;;;5035124;28;20179;-86
2023/07/22 02:18:29;;;;;;;9.38;5.93;;;14.20;99.90;;;;;;5035546;28;20170;-86
2023/07/22 02:20:55;;;;;;;9.10;6.15;;;14.10;99.90;;;;;;5035443;28;20183;-86
2023/07/22 02:23:22;;;;;;;8.93;6.10;;;14.10;99.90;;;;;;5034915;28;20209;-87
2023/07/22 02:25:52;;;;;;;11.00;6.20;;;14.10;99.90;;;;;;5019589;28;20184;-88
2023/07/22 02:28:23;;;;;;;10.32;6.30;;;14.10;99.90;;;;;;5015715;28;20327;-86
2023/07/22 02:30:52;;;;;;;7.75;6.03;;;14.00;99.90;;;;;;5015380;28;20257;-85
2023/07/22 02:33:18;;;;;;;10.15;6.20;;;14.00;99.90;;;;;;5014763;28;20203;-87
2023/07/22 02:35:44;;;;;;;10.25;6.38;;;14.00;99.90;;;;;;5015305;28;20195;-88
2023/07/22 02:38:09;;;;;;;9.35;6.53;;;13.90;99.90;;;;;;5015180;28;20610;-84
2023/07/22 02:40:36;;;;;;;11.20;6.28;;;13.90;99.90;;;;;;5015351;28;20179;-87
2023/07/22 02:43:03;;;;;;;9.75;5.97;;;13.90;99.90;;;;;;5015280;28;20183;-86
2023/07/22 02:45:30;;;;;;;9.55;6.40;;;13.90;99.90;;;;;;5015187;28;20179;-85
2023/07/22 02:47:56;;;;;;;9.65;6.40;;;13.90;99.90;;;;;;5016287;28;20164;-87
2023/07/22 02:50:22;;;;;;;11.73;6.30;;;13.90;99.90;;;;;;5014987;28;20210;-86
2023/07/22 02:52:47;;;;;;;9.43;6.30;;;13.90;99.90;;;;;;5014652;28;20231;-86
2023/07/22 02:55:23;;;;;;;8.57;5.90;;;13.90;99.90;;;;;;5015213;28;20191;-85
2023/07/22 02:57:48;;;;;;;12.32;6.65;;;13.90;99.90;;;;;;5015010;28;20197;-87
2023/07/22 03:00:25;;;;;;;10.93;6.55;;;13.90;99.90;;;;;;5031654;28;20183;-86
2023/07/22 03:02:52;;;;;;;12.52;6.38;;;13.90;99.90;;;;;;5014970;28;20174;-87
2023/07/22 03:05:19;;;;;;;9.18;7.18;;;13.80;99.90;;;;;;5015189;28;20956;-86
2023/07/22 03:07:45;;;;;;;10.63;6.63;;;13.80;99.90;;;;;;5014593;28;20175;-87
2023/07/22 03:10:11;;;;;;;9.25;6.65;;;13.80;99.90;;;;;;5031291;28;20294;-85
2023/07/22 03:12:37;;;;;;;9.35;6.88;;;13.70;99.90;;;;;;5031107;28;20178;-86
2023/07/22 03:15:04;;;;;;;10.77;7.30;;;13.80;99.90;;;;;;5014593;28;20186;-85
2023/07/22 03:17:29;;;;;;;10.93;6.95;;;13.80;99.90;;;;;;5014753;28;20198;-84
2023/07/22 03:19:55;;;;;;;9.60;6.43;;;13.70;99.90;;;;;;5015707;28;20598;-85
2023/07/22 03:22:21;;;;;;;8.15;6.50;;;13.80;99.90;;;;;;5014583;28;20175;-85
2023/07/22 03:24:55;;;;;;;8.95;6.55;;;13.80;99.90;;;;;;5023115;28;20679;-86
2023/07/22 03:27:21;;;;;;;9.20;7.28;;;13.70;99.90;;;;;;5033741;28;20266;-84
2023/07/22 03:29:47;;;;;;;11.00;7.35;;;13.70;99.90;;;;;;5034371;28;20256;-87
2023/07/22 03:32:12;;;;;;;10.68;6.88;;;13.80;99.90;;;;;;5034251;28;20178;-86
2023/07/22 03:34:38;;;;;;;10.13;7.10;;;13.80;99.90;;;;;;5034176;28;20621;-87
2023/07/22 03:37:04;;;;;;;9.95;6.45;;;13.70;99.90;;;;;;5034185;28;20179;-86
2023/07/22 03:39:29;;;;;;;12.15;7.15;;;13.80;99.90;;;;;;5034049;28;20174;-87
2023/07/22 03:41:55;;;;;;;11.52;7.05;;;13.80;99.90;;;;;;5034116;28;20597;-85
2023/07/22 03:44:21;;;;;;;12.25;7.28;;;13.80;99.90;;;;;;5033951;28;20189;-84
2023/07/22 03:46:46;;;;;;;8.68;6.70;;;13.80;99.90;;;;;;5033994;28;20175;-84
2023/07/22 03:49:12;;;;;;;9.50;7.13;;;13.80;99.90;;;;;;5033905;28;20518;-85
2023/07/22 03:51:37;;;;;;;9.50;7.22;;;13.70;99.90;;;;;;5033705;28;20186;-86
2023/07/22 03:54:14;;;;;;;15.00;7.15;;;13.70;99.90;;;;;;5033792;28;20206;-86
2023/07/22 03:56:41;;;;;;;9.48;7.07;;;13.70;99.90;;;;;;5034015;28;20217;-85
2023/07/22 03:59:07;;;;;;;13.02;7.55;;;13.70;99.90;;;;;;5033928;28;20243;-86
2023/07/22 04:01:32;;;;;;;10.80;7.32;;;13.70;99.90;;;;;;5033833;28;20601;-84
2023/07/22 04:03:58;;;;;;;14.93;6.78;;;13.70;99.90;;;;;;5034896;28;20166;-88
2023/07/22 04:06:24;;;;;;;12.10;7.15;;;13.70;99.90;;;;;;5033736;28;20194;-88
2023/07/22 04:08:51;;;;;;;13.05;7.07;;;13.70;99.90;;;;;;5033377;28;20276;-86
2023/07/22 04:11:17;;;;;;;10.60;7.28;;;13.80;99.90;;;;;;5034831;28;20214;-86
2023/07/22 04:13:42;;;;;;;10.15;6.28;;;13.80;99.90;;;;;;5033814;28;20236;-86
2023/07/22 04:16:10;;;;;;;10.00;6.43;;;13.70;99.90;;;;;;5033893;28;20208;-85
2023/07/22 04:18:36;;;;;;;10.23;6.35;;;13.80;99.90;;;;;;5033914;28;20272;-88
2023/07/22 04:21:02;;;;;;;12.75;6.45;;;13.80;99.90;;;;;;5033828;28;20269;-87
2023/07/22 04:23:27;;;;;;;9.60;5.78;;;13.80;99.90;;;;;;5033479;28;20748;-85
2023/07/22 04:26:04;;;;;;;8.85;5.93;;;13.80;99.90;;;;;;5033886;28;20175;-91
2023/07/22 04:28:30;;;;;;;10.23;6.22;;;13.80;99.90;;;;;;5033863;28;20174;-84
2023/07/22 04:30:58;;;;;;;10.30;6.70;;;13.80;99.90;;;;;;5033582;28;20649;-85
2023/07/22 04:33:24;;;;;;;11.98;6.70;;;13.80;99.90;;;;;;5033501;28;20621;-85
2023/07/22 04:35:52;;;;;;;9.65;6.13;;;13.90;99.90;;;;;;5033620;28;20182;-88
2023/07/22 04:38:18;;;;;;;9.57;5.75;;;13.90;99.90;;;;;;5033331;28;20179;-85
2023/07/22 04:40:44;;;;;;;11.10;6.10;;;13.90;99.90;;;;;;5037316;28;20201;-87
2023/07/22 04:43:10;;;;;;;8.85;5.63;;;13.90;99.90;;;;;;5036806;28;20179;-88
2023/07/22 04:45:40;;;;;;;10.38;6.38;;;14.00;99.90;;;;;;5037313;28;20228;-87
2023/07/22 04:48:06;;;;;;;9.00;5.57;;;14.00;99.90;;;;;;5046965;28;20197;-85
2023/07/22 04:50:32;;;;;;;11.32;6.20;;;14.10;99.90;;;;;;5057048;28;20667;-88
2023/07/22 04:52:58;;;;;;;9.25;6.00;;;14.10;99.90;;;;;;5058144;28;20218;-86
2023/07/22 04:55:29;;;;;;;12.13;6.18;;;14.30;99.90;;;;;;5057365;28;20184;-87
2023/07/22 04:57:57;;;;;;;9.60;5.85;;;14.30;99.90;;;;;;5057129;28;20512;-86
2023/07/22 05:00:23;;;;;;;9.05;5.82;;;14.40;99.90;;;;;;5056658;28;20178;-86
2023/07/22 05:02:49;;;;;;;9.93;6.10;;;14.50;99.90;;;;;;5056457;28;20178;-87
2023/07/22 05:05:16;;;;;;;8.77;6.05;;;14.60;99.90;;;;;;5057010;28;20181;-86
2023/07/22 05:07:42;;;;;;;10.45;6.18;;;14.60;99.90;;;;;;5056852;28;20174;-86
2023/07/22 05:10:11;;;;;;;9.20;6.00;;;14.70;99.90;;;;;;5056497;28;20296;-86
2023/07/22 05:12:41;;;;;;;11.70;5.85;;;14.70;99.90;;;;;;5056883;28;20228;-87
2023/07/22 05:15:10;;;;;;;8.57;5.70;;;14.70;99.90;;;;;;5056615;28;20196;-86
2023/07/22 05:17:36;;;;;;;9.27;5.80;;;14.70;99.90;;;;;;5050476;28;20779;-85
2023/07/22 05:20:02;;;;;;;9.57;5.25;;;14.70;99.90;;;;;;5036719;28;20226;-86
2023/07/22 05:22:28;;;;;;;8.90;5.50;;;14.80;99.90;;;;;;5036644;28;20198;-86
2023/07/22 05:25:00;;;;;;;8.95;5.47;;;14.80;99.90;;;;;;5036433;28;20206;-85
2023/07/22 05:27:26;;;;;;;9.95;6.00;;;14.90;99.90;;;;;;5036723;28;20723;-88
2023/07/22 05:29:52;;;;;;;10.13;5.05;;;14.90;99.90;;;;;;5036527;28;20213;-86
2023/07/22 05:32:17;;;;;;;10.18;5.55;;;14.90;99.90;;;;;;5036452;28;20183;-87
2023/07/22 05:34:43;;;;;;;9.88;5.32;;;14.90;99.90;;;;;;5036112;28;20760;-87
2023/07/22 05:37:16;;;;;;;8.68;5.40;;;14.90;99.90;;;;;;5036187;28;20170;-86
2023/07/22 05:39:42;;;;;;;10.43;5.75;;;14.90;99.90;;;;;;5036496;28;20189;-87
2023/07/22 05:42:07;;;;;;;9.13;5.80;;;15.00;99.90;;;;;;5036149;28;20182;-86
2023/07/22 05:44:33;;;;;;;11.32;5.85;;;15.00;99.90;;;;;;5037349;28;20178;-86
2023/07/22 05:47:01;;;;;;;8.15;5.25;;;15.10;99.90;;;;;;5035330;28;20178;-88
2023/07/22 05:49:27;;;;;;;9.18;5.47;;;15.00;99.90;;;;;;5016116;28;20630;-88
2023/07/22 05:51:54;;;;;;;11.63;5.75;;;15.00;99.90;;;;;;5015462;28;20728;-91
2023/07/22 05:54:20;;;;;;;8.63;5.10;;;15.10;99.90;;;;;;5016294;28;20171;-90
2023/07/22 05:56:46;;;;;;;8.38;5.40;;;15.10;99.90;;;;;;5016299;28;20190;-86
2023/07/22 05:59:12;;;;;;;13.07;5.53;;;15.20;99.90;;;;;;5016266;28;20164;-86
2023/07/22 06:01:38;;;;;;;7.70;5.43;;;15.20;99.90;;;;;;5015980;28;20189;-90
2023/07/22 06:04:13;;;;;;;7.40;5.10;;;15.30;99.90;;;;;;5033079;28;20324;-85
2023/07/22 06:06:45;;;;;;;8.93;5.25;;;15.30;99.90;;;;;;5036418;28;20185;-86
2023/07/22 06:09:11;;;;;;;11.90;5.63;;;15.40;99.90;;;;;;5035091;28;20171;-88
2023/07/22 06:11:37;;;;;;;11.10;5.50;;;15.50;99.90;;;;;;5035539;28;20175;-90
2023/07/22 06:14:03;;;;;;;9.70;5.72;;;15.50;99.90;;;;;;5035171;28;20171;-90
2023/07/22 06:16:28;;;;;;;9.32;5.68;;;15.50;99.90;;;;;;5034663;28;20189;-88
2023/07/22 06:18:54;;;;;;;11.98;5.80;;;15.60;99.90;;;;;;5035220;28;20269;-91
2023/07/22 06:21:20;;;;;;;12.50;5.78;;;15.60;99.90;;;;;;5035489;28;20175;-89
2023/07/22 06:23:46;;;;;;;9.18;5.80;;;15.70;99.90;;;;;;5035454;28;20577;-89
2023/07/22 06:26:12;;;;;;;8.68;5.63;;;15.70;99.90;;;;;;5035463;28;20229;-89
2023/07/22 06:28:37;;;;;;;11.63;5.82;;;15.70;99.90;;;;;;5035428;28;20167;-90
2023/07/22 06:31:03;;;;;;;8.95;5.05;;;15.70;99.90;;;;;;5035272;28;20241;-89
2023/07/22 06:33:28;;;;;;;8.60;5.88;;;15.80;99.90;;;;;;5035173;28;20210;-91
2023/07/22 06:35:54;;;;;;;10.25;5.25;;;15.70;99.90;;;;;;5035837;28;20323;-87
2023/07/22 06:38:20;;;;;;;11.75;5.70;;;15.80;99.90;;;;;;5036546;28;20598;-87
2023/07/22 06:40:45;;;;;;;8.02;5.63;;;15.90;99.90;;;;;;5035211;28;20206;-86
2023/07/22 06:43:11;;;;;;;9.77;5.50;;;16.00;99.90;;;;;;5036090;28;20284;-87
2023/07/22 06:45:37;;;;;;;10.43;5.53;;;16.10;99.90;;;;;;5035939;28;20179;-87
2023/07/22 06:48:12;;;;;;;9.43;5.25;;;16.30;99.90;;;;;;5026433;28;20187;-88
2023/07/22 06:50:37;;;;;;;8.82;5.00;;;16.40;99.90;;;;;;5015213;28;20221;-88
2023/07/22 06:53:06;;;;;;;7.97;4.82;;;16.60;99.90;;;;;;5014571;28;20226;-88
2023/07/22 06:55:31;;;;;;;10.65;5.20;;;16.60;99.90;;;;;;5014739;28;20618;-87
2023/07/22 06:58:04;;;;;;;10.15;5.25;;;16.80;99.90;;;;;;5014041;28;20268;-88
2023/07/22 07:00:30;;;;;;;12.65;5.20;;;16.90;99.90;;;;;;5016048;28;20167;-89
2023/07/22 07:02:56;;;;;;;7.60;5.00;;;17.00;99.90;;;;;;5024371;28;20174;-88
2023/07/22 07:05:21;;;;;;;8.00;5.22;;;16.90;99.90;;;;;;5034718;28;20232;-89
2023/07/22 07:07:49;;;;;;;10.45;5.07;;;17.00;99.90;;;;;;5034609;28;20617;-87
2023/07/22 07:10:15;;;;;;;9.55;5.55;;;17.00;99.90;;;;;;5034397;28;20665;-87
2023/07/22 07:12:40;;;;;;;8.65;5.53;;;17.00;99.90;;;;;;5034691;28;20728;-86
2023/07/22 07:15:07;;;;;;;9.13;5.10;;;17.00;99.90;;;;;;5029978;28;20186;-87
2023/07/22 07:17:32;;;;;;;9.50;5.57;;;17.10;99.90;;;;;;5035391;28;20224;-86
2023/07/22 07:19:58;;;;;;;7.97;4.60;;;17.30;99.90;;;;;;5020216;28;20179;-86
2023/07/22 07:22:24;;;;;;;10.13;5.70;;;17.30;99.90;;;;;;5027558;28;20575;-86
2023/07/22 07:24:49;;;;;;;8.43;5.45;;;17.30;99.90;;;;;;5031401;28;20181;-88
2023/07/22 07:27:15;;;;;;;12.85;6.07;;;17.40;99.90;;;;;;5034059;28;20182;-87
2023/07/22 07:29:41;;;;;;;9.15;5.25;;;17.50;99.90;;;;;;5033292;28;20206;-86
2023/07/22 07:32:08;;;;;;;11.77;5.50;;;17.60;99.90;;;;;;5033520;28;20221;-87
2023/07/22 07:34:33;;;;;;;9.55;5.40;;;17.80;99.90;;;;;;5033968;28;20182;-86
2023/07/22 07:37:00;;;;;;;10.88;5.28;;;17.80;99.90;;;;;;5034057;28;20617;-87
2023/07/22 07:39:26;;;;;;;6.55;5.00;;;17.80;99.90;;;;;;5034067;28;20225;-86
2023/07/22 07:41:51;;;;;;;8.52;5.32;;;17.80;99.90;;;;;;5033759;28;20183;-86
2023/07/22 07:44:17;;;;;;;8.60;5.25;;;17.70;99.90;;;;;;5045495;28;20189;-87
2023/07/22 07:46:43;;;;;;;24.75;9.38;;;17.70;99.90;;;;;;5053626;28;20178;-86
2023/07/22 07:49:08;;;;;;;8.00;5.20;;;17.60;99.90;;;;;;5035997;28;20201;-88
2023/07/22 07:51:34;;;;;;;12.13;5.30;;;17.60;99.90;;;;;;5033524;28;20313;-87
2023/07/22 07:54:00;;;;;;;8.93;5.05;;;17.40;99.90;;;;;;5033744;28;20186;-90
2023/07/22 07:56:25;;;;;;;7.15;4.90;;;17.40;99.90;;;;;;5033965;28;20186;-89
2023/07/22 07:58:53;;;;;;;8.20;5.10;;;17.50;99.90;;;;;;5033189;28;20171;-87
2023/07/22 08:01:19;;;;;;;7.65;4.93;;;17.60;99.90;;;;;;5032642;28;20639;-86
2023/07/22 08:03:45;;;;;;;11.10;5.43;;;17.80;99.90;;;;;;5033379;28;20210;-86
2023/07/22 08:06:12;;;;;;;10.50;5.47;;;17.90;99.90;;;;;;5032836;28;20190;-86
2023/07/22 08:08:40;;;;;;;7.45;5.47;;;18.00;99.90;;;;;;5033570;28;20522;-86
2023/07/22 08:11:13;;;;;;;8.68;5.10;;;18.00;99.90;;;;;;5014594;28;20218;-88
2023/07/22 08:13:39;;;;;;;10.25;6.05;;;18.20;99.90;;;;;;5014277;28;20640;-88
2023/07/22 08:16:07;;;;;;;7.20;5.18;;;18.40;99.90;;;;;;5047340;28;20193;-88
2023/07/22 08:18:39;;;;;;;7.95;5.03;;;18.60;99.90;;;;;;5036587;28;20186;-89
2023/07/22 08:21:07;;;;;;;14.88;6.63;;;18.70;99.90;;;;;;5036679;28;20193;-88
2023/07/22 08:23:33;;;;;;;6.72;4.97;;;18.80;99.90;;;;;;5037360;28;20178;-87
2023/07/22 08:25:59;;;;;;;7.85;4.80;;;18.70;99.90;;;;;;5042595;28;20269;-86
2023/07/22 08:28:40;;;;;;;9.13;5.13;;;18.80;99.90;;;;;;5042288;28;20207;-88
2023/07/22 08:31:06;;;;;;;5.82;4.72;;;18.90;99.90;;;;;;5036884;28;20660;-90
2023/07/22 08:33:31;;;;;;;8.10;5.00;;;19.00;99.90;;;;;;5036595;28;20221;-93
2023/07/22 08:35:57;;;;;;;6.97;4.45;;;18.90;99.90;;;;;;5032158;28;20209;-87
2023/07/22 08:38:23;;;;;;;6.97;4.30;;;18.90;99.90;;;;;;5039969;28;20202;-86
2023/07/22 08:40:51;;;;;;;6.03;4.35;;;19.00;99.90;;;;;;5057285;28;20182;-87
2023/07/22 08:43:20;;;;;;;7.97;4.80;;;19.10;99.90;;;;;;5040300;28;20174;-84
2023/07/22 08:45:48;;;;;;;8.07;4.65;;;19.20;99.90;;;;;;5038455;28;20179;-83
2023/07/22 08:48:18;;;;;;;6.40;4.35;;;19.10;99.90;;;;;;5043981;28;20268;-84
2023/07/22 08:50:53;;;;;;;6.68;4.88;;;19.00;99.90;;;;;;5048442;28;20241;-85
2023/07/22 08:53:19;;;;;;;9.00;5.07;;;18.90;99.90;;;;;;5052786;28;20733;-85
2023/07/22 08:55:45;;;;;;;6.57;5.10;;;19.00;99.90;;;;;;5029641;28;20198;-85
2023/07/22 08:58:18;;;;;;;6.47;4.43;;;19.00;99.90;;;;;;5036794;28;20209;-86
2023/07/22 09:00:46;;;;;;;5.88;4.50;;;19.00;99.90;;;;;;5036218;28;20814;-92
2023/07/22 09:03:12;;;;;;;6.57;4.53;;;19.00;99.90;;;;;;5035085;28;20194;-86
2023/07/22 09:05:38;;;;;;;10.35;4.68;;;19.00;99.90;;;;;;5023990;28;20171;-85
2023/07/22 09:08:08;;;;;;;5.90;4.30;;;19.10;99.90;;;;;;5030341;28;20182;-85
2023/07/22 09:10:35;;;;;;;6.22;4.50;;;19.10;99.90;;;;;;5019854;28;20210;-86
2023/07/22 09:13:02;;;;;;;6.45;4.60;;;19.20;99.90;;;;;;5061047;28;20186;-85
2023/07/22 09:15:28;;;;;;;6.55;4.60;;;19.40;99.90;;;;;;5033242;28;20218;-85
2023/07/22 09:17:54;;;;;;;9.00;4.80;;;19.50;99.90;;;;;;5031852;28;20186;-85
2023/07/22 09:20:28;;;;;;;8.52;4.38;;;19.60;99.90;;;;;;5038752;28;20190;-84
2023/07/22 09:22:54;;;;;;;6.80;4.78;;;19.60;99.90;;;;;;5036193;28;20182;-88
2023/07/22 09:25:21;;;;;;;6.70;4.43;;;19.60;99.90;;;;;;5034936;28;20175;-88
2023/07/22 09:27:48;;;;;;;4.55;3.95;;;19.50;99.90;;;;;;5036570;28;20632;-86
2023/07/22 09:30:28;;;;;;;6.18;4.25;;;19.40;99.90;;;;;;5036699;28;20210;-88
2023/07/22 09:32:56;;;;;;;6.28;4.47;;;19.20;99.90;;;;;;5016243;28;20206;-86
2023/07/22 09:35:24;;;;;;;7.40;4.68;;;19.20;99.90;;;;;;5016039;28;20629;-86
2023/07/22 09:37:50;;;;;;;5.80;4.47;;;19.20;99.90;;;;;;5016383;28;20179;-87
2023/07/22 09:40:33;;;;;;;7.45;4.60;;;19.20;99.90;;;;;;5016234;28;20206;-87
2023/07/22 09:43:02;;;;;;;7.03;4.90;;;19.40;99.90;;;;;;5016100;28;20190;-85
2023/07/22 09:45:29;;;;;;;6.43;4.32;;;19.50;99.90;;;;;;5032012;28;20216;-87
2023/07/22 09:47:56;;;;;;;7.35;4.20;;;19.50;99.90;;;;;;5037032;28;20185;-86
2023/07/22 09:50:25;;;;;;;7.70;4.53;;;19.40;99.90;;;;;;5036494;28;20190;-87
2023/07/22 09:52:56;;;;;;;6.80;4.30;;;19.20;99.90;;;;;;5033486;28;20230;-85
2023/07/22 09:55:24;;;;;;;6.20;4.28;;;19.10;99.90;;;;;;5035653;28;20242;-83
2023/07/22 09:57:53;;;;;;;6.55;4.28;;;19.00;99.90;;;;;;5035314;28;20182;-84
2023/07/22 10:00:39;;;;;;;5.43;4.35;;;18.90;99.90;;;;;;5035686;28;20617;-83
2023/07/22 10:03:09;;;;;;;6.78;4.57;;;19.00;99.90;;;;;;5035638;28;20186;-87
2023/07/22 10:05:37;;;;;;;10.20;5.18;;;19.10;99.90;;;;;;5035434;28;20217;-88
2023/07/22 10:08:06;;;;;;;6.93;4.68;;;19.30;99.90;;;;;;5034626;28;20178;-86
2023/07/22 10:10:34;;;;;;;6.57;4.65;;;19.40;99.90;;;;;;5035277;28;20206;-85
2023/07/22 10:13:00;;;;;;;5.97;4.72;;;19.50;99.90;;;;;;5035303;28;20163;-84
2023/07/22 10:15:29;;;;;;;6.00;5.13;;;19.80;99.90;;;;;;5035044;28;20256;-86
2023/07/22 10:17:56;;;;;;;9.32;5.55;;;19.90;99.90;;;;;;5036348;28;20179;-88
2023/07/22 10:20:24;;;;;;;6.35;5.40;;;20.10;99.90;;;;;;5030498;28;20621;-84
2023/07/22 10:22:50;;;;;;;6.10;5.13;;;20.00;99.90;;;;;;5035004;28;20231;-86
2023/07/22 10:25:18;;;;;;;7.03;5.32;;;19.90;99.90;;;;;;5034839;28;20188;-86
2023/07/22 10:27:44;;;;;;;7.90;5.57;;;20.00;99.90;;;;;;5036401;28;20174;-84
2023/07/22 10:30:11;;;;;;;9.48;5.97;;;20.30;99.90;;;;;;5039269;28;20720;-85
2023/07/22 10:32:53;;;;;;;8.88;5.72;;;20.40;99.90;;;;;;5054816;28;20186;-86
2023/07/22 10:35:34;;;;;;;6.55;5.50;;;20.40;99.90;;;;;;5053955;28;20208;-87
2023/07/22 10:38:11;;;;;;;6.85;5.38;;;20.40;99.90;;;;;;5054064;28;20608;-85
2023/07/22 10:40:55;;;;;;;7.00;6.13;;;20.40;99.90;;;;;;5042019;28;20256;-84
2023/07/22 10:43:31;;;;;;;6.45;5.80;;;20.60;99.90;;;;;;5034284;28;20174;-83
2023/07/22 10:45:59;;;;;;;6.93;4.97;;;20.60;99.90;;;;;;5033614;28;20633;-84
2023/07/22 10:48:34;;;;;;;7.75;5.80;;;20.50;99.90;;;;;;5015096;28;20186;-82
2023/07/22 10:51:12;;;;;;;7.10;5.50;;;20.60;99.90;;;;;;5042504;28;20552;-84
2023/07/22 10:53:46;;;;;;;6.97;5.78;;;20.50;99.90;;;;;;5041118;28;20233;-83
2023/07/22 10:56:19;;;;;;;9.13;6.55;;;20.40;99.90;;;;;;5034647;28;20196;-84
2023/07/22 10:58:44;;;;;;;7.50;6.40;;;20.20;99.90;;;;;;5036906;28;20178;-84
2023/07/22 11:01:28;;;;;;;7.15;6.03;;;20.20;99.90;;;;;;5045568;28;20188;-85
2023/07/22 11:04:14;;;;;;;7.47;5.65;;;20.40;99.90;;;;;;5042038;28;20186;-86
2023/07/22 11:06:49;;;;;;;7.55;5.70;;;20.70;99.90;;;;;;5033401;28;20218;-88
2023/07/22 11:12:02;;;;;;;5.85;5.13;;;20.50;99.40;;;;;;5036839;28;20208;-90
2023/07/22 11:14:37;;;;;;;10.02;5.63;;;20.20;99.30;;;;;;5050184;28;20815;-86
2023/07/22 11:17:05;;;;;;;6.47;5.10;;;20.20;99.70;;;;;;5042625;28;20181;-86
2023/07/22 11:19:35;;;;;;;5.60;4.50;;;20.00;99.10;;;;;;5037016;28;20179;-87
2023/07/22 11:22:01;;;;;;;7.05;5.38;;;19.90;99.90;;;;;;5050498;28;20197;-87
2023/07/22 11:24:27;;;;;;;6.30;4.57;;;19.80;99.90;;;;;;5049117;28;20185;-85
2023/07/22 11:26:54;;;;;;;4.65;4.00;;;19.70;99.90;;;;;;5040687;28;20264;-84
2023/07/22 11:29:20;;;;;;;5.18;4.18;;;19.50;99.90;;;;;;5040580;28;20277;-87
2023/07/22 11:31:51;;;;;;;9.68;4.07;;;19.30;99.90;;;;;;5022787;28;20266;-85
2023/07/22 11:34:22;;;;;;;6.65;4.07;;;19.20;99.90;;;;;;5014111;28;20179;-86
2023/07/22 11:36:50;;;;;;;7.18;4.55;;;19.10;99.90;;;;;;5013832;28;20602;-82
2023/07/22 11:39:18;;;;;;;4.72;3.75;;;19.00;99.90;;;;;;5013930;28;20202;-84
2023/07/22 11:41:50;;;;;;;5.25;4.10;;;19.00;99.90;;;;;;5025204;28;20179;-84
2023/07/22 11:44:17;;;;;;;5.82;4.00;;;18.90;99.90;;;;;;5033852;28;20179;-84
2023/07/22 11:46:56;;;;;;;6.60;3.72;;;18.80;99.90;;;;;;5034029;28;20499;-86
2023/07/22 11:49:46;;;;;;;5.43;4.05;;;18.70;99.90;;;;;;5033861;28;20621;-84
2023/07/22 11:52:19;;;;;;;6.03;4.22;;;18.60;99.90;;;;;;5033148;28;20226;-84
2023/07/22 11:54:47;;;;;;;6.28;4.13;;;18.60;99.90;;;;;;5035050;28;20169;-84
2023/07/22 11:57:21;;;;;;;6.40;4.20;;;18.50;99.90;;;;;;5033938;28;20185;-84
2023/07/22 11:59:56;;;;;;;4.97;3.97;;;18.50;99.90;;;;;;5034742;28;20170;-83
2023/07/22 12:02:31;;;;;;;7.18;3.83;;;18.40;99.90;;;;;;5033731;28;20245;-83
2023/07/22 12:04:57;;;;;;;8.90;4.28;;;18.40;99.90;;;;;;5019379;28;20183;-83
2023/07/22 12:07:25;;;;;;;9.70;4.80;;;18.40;99.90;;;;;;5015017;28;20171;-83
2023/07/22 12:09:52;;;;;;;4.55;3.47;;;18.40;99.90;;;;;;5013463;28;20214;-84
2023/07/22 12:12:20;;;;;;;7.57;4.22;;;18.40;99.90;;;;;;5013499;28;20262;-83
2023/07/22 12:14:46;;;;;;;5.15;3.85;;;18.50;99.90;;;;;;5029934;28;20182;-83
2023/07/22 12:17:11;;;;;;;5.57;3.83;;;18.50;99.90;;;;;;5013231;28;20179;-83
2023/07/22 12:19:37;;;;;;;5.25;3.97;;;18.50;99.90;;;;;;5012989;28;20279;-82
2023/07/22 12:22:04;;;;;;;5.30;3.92;;;18.80;99.90;;;;;;5013191;28;20211;-84
2023/07/22 12:24:30;;;;;;;6.25;4.13;;;19.10;99.90;;;;;;5012636;28;20234;-80
2023/07/22 12:26:55;;;;;;;6.72;4.10;;;19.40;99.90;;;;;;5012951;28;20183;-82
2023/07/22 12:29:22;;;;;;;4.03;3.63;;;19.60;99.90;;;;;;5029356;28;20513;-83
2023/07/22 12:31:48;;;;;;;4.50;3.90;;;19.70;99.90;;;;;;5012834;28;20688;-83
2023/07/22 12:34:13;;;;;;;5.05;3.67;;;19.70;99.90;;;;;;5029035;28;20525;-83
2023/07/22 12:36:41;;;;;;;5.65;4.18;;;19.70;99.90;;;;;;5014394;28;20231;-83
2023/07/22 12:39:06;;;;;;;8.73;3.65;;;19.60;99.90;;;;;;5029540;28;20565;-83
2023/07/22 12:41:32;;;;;;;5.60;4.05;;;19.50;99.90;;;;;;5013877;28;20171;-83
2023/07/22 12:43:58;;;;;;;3.95;3.50;;;19.40;99.90;;;;;;5029543;28;20179;-83
2023/07/22 12:46:23;;;;;;;10.23;4.32;;;19.30;99.90;;;;;;5014487;28;20179;-84
2023/07/22 12:48:49;;;;;;;5.60;3.65;;;19.20;99.90;;;;;;5029194;28;20179;-83
2023/07/22 12:51:15;;;;;;;4.60;3.60;;;19.10;99.90;;;;;;5014167;28;20297;-83